Weather at Henri Coandă International Airport

Public forecast

Using degrees Celsius for public forecast. Weather courtesy of forecast.io.

Current aviation weather report (METAR) for Henri Coandă International Airport

Report is more than 6 hours old.

2022/11/14 15:30 (retrieved 2 years ago)

LROP 141530Z 09005KT 9999 OVC015 09/06 Q1027 NOSIG

Aviation forecast (TAF) for Henri Coandă International Airport

Forecast is more than 12 hours old.

2023/02/22 18:33 (retrieved 1 year ago)

TAF LROP 221700Z 2218/2318 07008KT 9999 SCT040 PROB40 TEMPO 2308/2315 07015G25KT TEMPO 2313/2318 5000 -RA BR BKN010 BKN035